Time;durP1;ratioP1;P1;durP2;ratioP2;P2;SDS_P1;SDS_P2;PMS_P1;PMS_P2;Temp;Humidity;BMP_temperature;BMP_pressure;BME280_temperature;BME280_humidity;BME280_pressure;Samples;Min_cycle;Max_cycle;Signal;HPM_P1;HPM_P2
2022/08/18 00:00:56;;;;;;;44.00;34.25;;;;;;;18.27;100.00;101095.66;5078943;28;20024;-73
2022/08/18 00:03:22;;;;;;;46.50;35.85;;;;;;;18.27;100.00;101106.56;5077892;28;20027;-73
2022/08/18 00:05:47;;;;;;;41.95;33.42;;;;;;;18.26;100.00;101107.56;5077931;28;20032;-73
2022/08/18 00:08:13;;;;;;;46.33;35.78;;;;;;;18.27;100.00;101112.88;5079007;28;20020;-73
2022/08/18 00:10:40;;;;;;;42.63;34.83;;;;;;;18.27;100.00;101117.44;5077514;28;20044;-74
2022/08/18 00:13:06;;;;;;;44.35;37.05;;;;;;;18.28;100.00;101119.16;5077693;28;20484;-73
2022/08/18 00:15:31;;;;;;;45.05;34.88;;;;;;;18.30;100.00;101119.84;5077741;28;20027;-73
2022/08/18 00:17:56;;;;;;;46.92;35.65;;;;;;;18.32;100.00;101118.69;5079074;28;20024;-73
2022/08/18 00:20:23;;;;;;;44.00;34.47;;;;;;;18.34;100.00;101121.25;5078900;28;20021;-73
2022/08/18 00:22:50;;;;;;;43.65;34.80;;;;;;;18.35;100.00;101120.25;5078954;28;20024;-73
2022/08/18 00:25:17;;;;;;;45.85;35.17;;;;;;;18.36;100.00;101119.25;5077596;28;20021;-73
2022/08/18 00:27:43;;;;;;;43.63;34.00;;;;;;;18.38;100.00;101124.53;5077755;28;20056;-73
2022/08/18 00:30:12;;;;;;;48.38;36.38;;;;;;;18.37;100.00;101129.09;5078652;28;20020;-73
2022/08/18 00:32:42;;;;;;;44.42;34.97;;;;;;;18.37;100.00;101133.69;5077674;28;20055;-73
2022/08/18 00:35:14;;;;;;;44.67;34.63;;;;;;;18.38;100.00;101135.41;5079125;28;20028;-73
2022/08/18 00:37:40;;;;;;;43.38;34.55;;;;;;;18.37;100.00;101123.66;5077828;28;20024;-73
2022/08/18 00:40:07;;;;;;;45.80;36.40;;;;;;;18.37;100.00;101123.66;5078909;28;20046;-73
2022/08/18 00:42:39;;;;;;;48.53;34.53;;;;;;;18.39;100.00;101132.53;5077541;28;20084;-73
2022/08/18 00:45:05;;;;;;;42.75;34.72;;;;;;;18.40;100.00;101145.09;5078925;28;20047;-73
2022/08/18 00:47:30;;;;;;;45.08;34.97;;;;;;;18.41;100.00;101144.09;5078707;28;20025;-73
2022/08/18 00:49:56;;;;;;;47.70;34.60;;;;;;;18.40;100.00;101142.38;5078432;28;20028;-73
2022/08/18 00:52:23;;;;;;;42.97;33.92;;;;;;;18.39;100.00;101137.97;5078569;28;20031;-73
2022/08/18 00:54:50;;;;;;;41.88;33.65;;;;;;;18.38;100.00;101141.69;5078295;28;20031;-73
2022/08/18 00:57:20;;;;;;;42.70;33.40;;;;;;;18.37;100.00;101139.97;5075232;28;20032;-73
2022/08/18 01:00:10;;;;;;;;;;;;;;;18.44;100.00;101134.78;5075599;28;20028;-73
2022/08/18 01:02:40;;;;;;;40.45;30.92;;;;;;;18.33;100.00;101122.25;5074583;28;19912;-73
2022/08/18 01:05:20;;;;;;;39.75;30.98;;;;;;;18.31;100.00;101129.72;5075281;28;20024;-73
2022/08/18 01:07:47;;;;;;;40.22;30.95;;;;;;;18.27;100.00;101133.75;5073995;28;20028;-73
2022/08/18 01:10:19;;;;;;;40.83;31.60;;;;;;;18.26;100.00;101132.03;5075150;28;20032;-74
2022/08/18 01:12:48;;;;;;;39.70;30.10;;;;;;;18.21;100.00;101131.66;5075256;28;20425;-73
2022/08/18 01:15:15;;;;;;;36.37;26.90;;;;;;;18.17;100.00;101123.81;5070372;28;20091;-73
2022/08/18 01:23:19;;;;;;;38.50;30.33;;;;;;;18.08;100.00;101122.03;5055268;28;20106;-73
2022/08/18 01:26:02;;;;;;;40.17;29.85;;;;;;;18.07;100.00;101120.31;5053681;28;20032;-73
2022/08/18 01:28:39;;;;;;;37.25;28.48;;;;;;;18.09;100.00;101125.59;5054910;28;20025;-73
2022/08/18 01:31:06;;;;;;;42.70;30.98;;;;;;;18.08;100.00;101123.88;5062711;28;20055;-73
2022/08/18 01:33:39;;;;;;;37.33;30.17;;;;;;;18.06;100.00;101124.03;5073670;28;20100;-73
2022/08/18 01:36:13;;;;;;;41.95;30.83;;;;;;;18.05;100.00;101118.75;5074773;28;20442;-73
2022/08/18 01:38:39;;;;;;;38.63;28.33;;;;;;;18.01;100.00;101122.78;5074582;28;20025;-73
2022/08/18 01:41:06;;;;;;;38.92;29.45;;;;;;;17.96;100.00;101121.38;5073142;28;20023;-73
2022/08/18 01:43:33;;;;;;;38.38;29.27;;;;;;;17.93;100.00;101120.84;5074504;28;20107;-73
2022/08/18 01:46:00;;;;;;;37.67;27.77;;;;;;;17.89;100.00;101127.56;5074339;28;20032;-73
2022/08/18 01:48:26;;;;;;;36.67;28.17;;;;;;;17.82;100.00;101114.59;5073117;28;20079;-73
2022/08/18 01:50:55;;;;;;;39.10;28.23;;;;;;;17.78;100.00;101118.63;5074371;28;20472;-73
2022/08/18 01:53:21;;;;;;;39.22;29.08;;;;;;;17.74;100.00;101119.94;5074262;28;20040;-73
2022/08/18 01:55:46;;;;;;;36.88;27.63;;;;;;;17.72;100.00;101111.09;5074210;28;20063;-73
2022/08/18 01:58:11;;;;;;;37.63;28.00;;;;;;;17.69;100.00;101118.69;5072844;28;20459;-73
2022/08/18 02:00:37;;;;;;;38.45;26.38;;;;;;;17.67;100.00;101116.13;5072516;28;20029;-73
2022/08/18 02:03:08;;;;;;;41.03;30.85;;;;;;;17.68;100.00;101127.88;5073812;28;20389;-73
2022/08/18 02:05:42;;;;;;;38.45;28.55;;;;;;;17.66;100.00;101109.00;5072758;28;20025;-73
2022/08/18 02:08:07;;;;;;;40.10;28.80;;;;;;;17.64;100.00;101105.56;5072672;28;20028;-73
2022/08/18 02:10:33;;;;;;;39.80;27.20;;;;;;;17.61;100.00;101103.13;5073787;28;20154;-73
2022/08/18 02:12:58;;;;;;;35.58;26.45;;;;;;;17.58;100.00;101101.56;5073818;28;20024;-73
2022/08/18 02:15:24;;;;;;;35.85;28.13;;;;;;;17.58;100.00;101111.59;5072574;28;20020;-73
2022/08/18 02:17:49;;;;;;;36.42;26.50;;;;;;;17.55;100.00;101110.03;5072514;28;20030;-73
2022/08/18 02:20:18;;;;;;;35.38;24.95;;;;;;;17.51;100.00;101116.81;5073711;28;20025;-73
2022/08/18 02:22:44;;;;;;;33.92;26.27;;;;;;;17.48;100.00;101111.66;5072787;28;20099;-73
2022/08/18 02:25:11;;;;;;;37.50;26.48;;;;;;;17.47;100.00;101121.66;5073706;28;20029;-73
2022/08/18 02:27:36;;;;;;;34.17;26.20;;;;;;;17.46;100.00;101119.94;5073614;28;20036;-73
2022/08/18 02:30:07;;;;;;;40.83;28.85;;;;;;;17.44;100.00;101121.97;5073325;28;20036;-73
2022/08/18 02:32:32;;;;;;;34.05;25.58;;;;;;;17.41;100.00;101119.56;5073580;28;20090;-73
2022/08/18 02:34:58;;;;;;;38.70;26.42;;;;;;;17.38;100.00;101119.88;5073652;28;21024;-73
2022/08/18 02:37:23;;;;;;;33.78;24.73;;;;;;;17.34;100.00;101123.88;5073656;28;20472;-73
2022/08/18 02:39:49;;;;;;;36.65;26.88;;;;;;;17.30;100.00;101128.75;5071994;28;20454;-73
2022/08/18 02:42:14;;;;;;;38.33;25.63;;;;;;;17.26;100.00;101126.50;5072129;28;20024;-73
2022/08/18 02:44:39;;;;;;;35.53;25.52;;;;;;;17.22;100.00;101133.22;5073262;28;20036;-73
2022/08/18 02:47:05;;;;;;;34.47;26.20;;;;;;;17.18;100.00;101140.81;5072011;28;20047;-73
2022/08/18 02:49:31;;;;;;;34.40;23.80;;;;;;;17.15;100.00;101126.69;5073154;28;20021;-73
2022/08/18 02:51:57;;;;;;;32.78;24.92;;;;;;;17.10;100.00;101138.84;5072056;28;20024;-73
2022/08/18 02:54:23;;;;;;;35.90;23.63;;;;;;;17.06;100.00;101134.72;5073250;28;20052;-73
2022/08/18 02:56:50;;;;;;;35.00;25.80;;;;;;;17.03;100.00;101135.03;5073096;28;20063;-73
2022/08/18 02:59:18;;;;;;;34.67;24.70;;;;;;;17.01;100.00;101130.72;5073264;28;20056;-73
2022/08/18 03:01:47;;;;;;;38.27;26.57;;;;;;;17.00;100.00;101124.47;5073355;28;20091;-73
2022/08/18 03:04:15;;;;;;;35.23;23.93;;;;;;;16.97;100.00;101124.75;5073141;28;20024;-73
2022/08/18 03:06:41;;;;;;;34.55;24.67;;;;;;;16.94;100.00;101130.44;5071837;28;20536;-73
2022/08/18 03:09:08;;;;;;;35.17;24.83;;;;;;;16.91;100.00;101125.31;5073146;28;20067;-73
2022/08/18 03:11:34;;;;;;;33.35;23.48;;;;;;;16.87;100.00;101119.34;5071756;28;20020;-73
2022/08/18 03:14:00;;;;;;;33.15;24.30;;;;;;;16.85;100.00;101121.34;5071931;28;20059;-73
2022/08/18 03:16:25;;;;;;;36.00;25.50;;;;;;;16.84;100.00;101121.44;5072980;28;20052;-73
2022/08/18 03:18:52;;;;;;;33.42;24.73;;;;;;;16.81;100.00;101129.88;5071463;28;20013;-73
2022/08/18 03:21:20;;;;;;;33.70;22.90;;;;;;;16.80;100.00;101139.91;5071453;28;20033;-73
2022/08/18 03:23:47;;;;;;;33.20;24.90;;;;;;;16.81;100.00;101140.75;5072988;28;20024;-73
2022/08/18 03:26:18;;;;;;;34.42;23.65;;;;;;;16.80;100.00;101144.47;5071919;28;20020;-73
2022/08/18 03:28:46;;;;;;;34.75;25.38;;;;;;;16.80;100.00;101150.75;5072633;28;20108;-73
2022/08/18 03:31:16;;;;;;;36.15;25.95;;;;;;;16.81;100.00;101144.34;5072263;28;20501;-73
2022/08/18 03:33:42;;;;;;;37.30;27.33;;;;;;;16.81;100.00;101144.34;5073090;28;20099;-73
2022/08/18 03:36:11;;;;;;;38.03;25.73;;;;;;;16.82;100.00;101142.47;5072884;28;20056;-73
2022/08/18 03:38:37;;;;;;;35.50;26.15;;;;;;;16.82;100.00;101153.31;5073008;28;20078;-73
2022/08/18 03:41:05;;;;;;;37.20;26.25;;;;;;;16.81;100.00;101152.47;5072732;28;20025;-73
2022/08/18 03:43:30;;;;;;;37.72;26.50;;;;;;;16.83;100.00;101149.63;5071306;28;20461;-73
2022/08/18 03:46:03;;;;;;;37.88;27.13;;;;;;;16.84;100.00;101154.03;5072615;28;20047;-73
2022/08/18 03:48:28;;;;;;;36.20;26.27;;;;;;;16.82;100.00;101145.19;5072790;28;20032;-73
2022/08/18 03:50:54;;;;;;;35.47;26.33;;;;;;;16.80;100.00;101149.91;5072356;28;20013;-73
2022/08/18 03:53:19;;;;;;;33.08;24.05;;;;;;;16.76;100.00;101142.06;5072845;28;20153;-73
2022/08/18 03:55:44;;;;;;;33.55;24.48;;;;;;;16.74;100.00;101154.91;5072692;28;20024;-73
2022/08/18 03:58:13;;;;;;;36.45;26.75;;;;;;;16.71;100.00;101151.63;5071162;28;20021;-73
2022/08/18 04:00:40;;;;;;;33.80;23.92;;;;;;;16.67;100.00;101145.63;5072451;28;20454;-73
2022/08/18 04:03:05;;;;;;;32.22;22.50;;;;;;;16.64;100.00;101139.66;5071381;28;20028;-73
2022/08/18 04:05:31;;;;;;;35.95;24.73;;;;;;;16.63;100.00;101141.50;5071473;28;20067;-73
2022/08/18 04:07:56;;;;;;;33.70;24.20;;;;;;;16.62;100.00;101147.94;5071405;28;20024;-73
2022/08/18 04:10:25;;;;;;;41.35;26.50;;;;;;;16.64;100.00;101140.50;5071129;28;20025;-73
2022/08/18 04:12:50;;;;;;;36.20;27.23;;;;;;;16.68;100.00;101141.91;5071169;28;20024;-73
2022/08/18 04:15:16;;;;;;;38.15;26.80;;;;;;;16.70;100.00;101133.63;5071136;28;20483;-73
2022/08/18 04:17:42;;;;;;;39.60;28.27;;;;;;;16.72;100.00;101140.63;5072382;28;20476;-73
2022/08/18 04:20:09;;;;;;;40.75;28.45;;;;;;;16.77;100.00;101140.19;5072552;28;20035;-73
2022/08/18 04:22:34;;;;;;;40.40;28.50;;;;;;;16.81;100.00;101143.47;5071388;28;20025;-73
2022/08/18 04:25:00;;;;;;;39.80;28.20;;;;;;;16.83;100.00;101144.19;5072511;28;20034;-73
2022/08/18 04:27:27;;;;;;;40.45;29.45;;;;;;;16.83;100.00;101147.75;5072367;28;20056;-73
2022/08/18 04:29:55;;;;;;;39.95;30.77;;;;;;;16.85;100.00;101147.59;5059479;28;20069;-73
2022/08/18 04:32:21;;;;;;;37.08;29.45;;;;;;;16.86;100.00;101143.88;5072675;28;20041;-73
2022/08/18 04:34:46;;;;;;;42.50;29.20;;;;;;;16.86;100.00;101146.59;5074736;28;20438;-73
2022/08/18 04:37:12;;;;;;;38.72;27.30;;;;;;;16.87;100.00;101140.19;5076074;28;20021;-73
2022/08/18 04:39:38;;;;;;;36.38;28.20;;;;;;;16.87;100.00;101148.31;5074708;28;20052;-73
2022/08/18 04:42:04;;;;;;;37.05;26.10;;;;;;;16.89;100.00;101149.06;5075780;28;20029;-73
2022/08/18 04:44:30;;;;;;;36.33;26.42;;;;;;;16.91;100.00;101152.47;5074596;28;20111;-73
2022/08/18 04:46:56;;;;;;;39.75;29.92;;;;;;;16.93;100.00;101153.19;5075629;28;20073;-73
2022/08/18 04:49:24;;;;;;;45.55;30.10;;;;;;;16.96;100.00;101155.63;5074279;28;20021;-73
2022/08/18 04:54:37;;;;;;;39.40;29.77;;;;;;;17.02;100.00;101165.88;5076203;28;20602;-73
2022/08/18 04:57:14;;;;;;;40.17;30.00;;;;;;;17.05;100.00;101172.88;5074451;28;20032;-73
2022/08/18 04:59:43;;;;;;;43.60;31.77;;;;;;;17.04;100.00;101169.31;5074102;28;20024;-73
2022/08/18 05:02:10;;;;;;;40.15;28.45;;;;;;;17.05;100.00;101165.59;5073927;28;20079;-73
2022/08/18 05:04:38;;;;;;;43.53;30.08;;;;;;;17.05;100.00;101157.44;5075585;28;20396;-73
2022/08/18 05:07:06;;;;;;;43.13;30.58;;;;;;;17.06;100.00;101161.88;5074568;28;20029;-73
2022/08/18 05:09:32;;;;;;;42.15;31.10;;;;;;;17.10;100.00;101159.72;5075465;28;20028;-73
2022/08/18 05:11:57;;;;;;;44.28;31.73;;;;;;;17.11;100.00;101167.69;5075468;28;20109;-73
2022/08/18 05:14:23;;;;;;;44.05;31.45;;;;;;;17.10;100.00;101170.56;5075263;28;20036;-73
2022/08/18 05:16:48;;;;;;;41.10;29.80;;;;;;;17.15;100.00;101170.16;5075242;28;20031;-73
2022/08/18 05:19:15;;;;;;;44.78;31.05;;;;;;;17.15;100.00;101178.31;5075005;28;20036;-73
2022/08/18 05:21:41;;;;;;;39.83;30.15;;;;;;;17.14;100.00;101179.28;5075155;28;20036;-73
2022/08/18 05:24:07;;;;;;;38.85;29.38;;;;;;;17.14;100.00;101185.56;5073854;28;20024;-73
2022/08/18 05:26:34;;;;;;;42.42;30.92;;;;;;;17.14;100.00;101179.28;5074800;28;20052;-73
2022/08/18 05:28:59;;;;;;;43.08;31.45;;;;;;;17.12;100.00;101180.28;5075488;28;20506;-73
2022/08/18 05:31:27;;;;;;;41.35;31.00;;;;;;;17.13;100.00;101175.72;5074465;28;20049;-73
2022/08/18 05:33:56;;;;;;;41.83;30.30;;;;;;;17.14;100.00;101173.88;5074987;28;20230;-73
2022/08/18 05:36:42;;;;;;;40.60;29.52;;;;;;;17.16;100.00;101172.72;5073848;28;20494;-73
2022/08/18 05:39:16;;;;;;;44.33;31.17;;;;;;;17.16;100.00;101180.00;5074934;28;20028;-73
2022/08/18 05:42:05;;;;;;;44.00;32.30;;;;;;;17.18;100.00;101181.56;5074714;28;20028;-73
2022/08/18 05:44:34;;;;;;;45.50;31.45;;;;;;;17.19;100.00;101185.13;5064699;28;20500;-73
2022/08/18 05:47:03;;;;;;;;;;;;;;;17.23;100.00;101173.84;5073800;28;20482;-73
2022/08/18 05:49:30;;;;;;;42.15;30.55;;;;;;;17.20;100.00;101187.69;5074590;28;19952;-73
2022/08/18 05:52:14;;;;;;;40.03;28.90;;;;;;;17.20;100.00;101187.69;5074351;28;20027;-73
2022/08/18 05:57:43;;;;;;;41.88;30.58;;;;;;;17.23;100.00;101191.97;5074807;28;20059;-73
2022/08/18 06:00:10;;;;;;;40.80;28.40;;;;;;;17.25;100.00;101196.28;5074343;28;20631;-73
2022/08/18 06:02:46;;;;;;;40.28;31.35;;;;;;;17.29;100.00;101194.09;5072732;28;20472;-73
2022/08/18 06:05:18;;;;;;;44.72;29.55;;;;;;;17.34;100.00;101197.25;5074323;28;20393;-73
2022/08/18 06:07:51;;;;;;;41.65;30.75;;;;;;;17.39;100.00;101197.63;5072825;28;20074;-73
2022/08/18 06:10:17;;;;;;;45.45;32.15;;;;;;;17.41;100.00;101197.47;5072643;28;20028;-73
2022/08/18 06:12:48;;;;;;;42.80;32.05;;;;;;;17.42;100.00;101191.06;5074132;28;20020;-73
2022/08/18 06:15:28;;;;;;;43.80;30.38;;;;;;;17.44;100.00;101198.06;5072633;28;20031;-73
2022/08/18 06:18:12;;;;;;;41.05;31.05;;;;;;;17.46;100.00;101196.03;5072859;28;20487;-73
2022/08/18 06:20:52;;;;;;;45.22;29.95;;;;;;;17.49;100.00;101191.31;5073978;28;20032;-73
2022/08/18 06:23:42;;;;;;;44.22;29.88;;;;;;;17.54;100.00;101189.00;5072479;28;20032;-73
2022/08/18 06:26:25;;;;;;;49.38;31.02;;;;;;;17.56;100.00;101190.56;5073368;28;20043;-73
2022/08/18 06:29:15;;;;;;;40.97;30.48;;;;;;;17.58;100.00;101196.69;5073590;28;20045;-73
2022/08/18 06:32:09;;;;;;;41.78;31.00;;;;;;;17.59;100.00;101206.56;5073170;28;20094;-73
2022/08/18 06:34:59;;;;;;;43.03;30.63;;;;;;;17.63;100.00;101204.44;5073613;28;20039;-73
2022/08/18 06:38:37;;;;;;;43.75;31.05;;;;;;;17.68;100.00;101209.41;5073741;28;20051;-73
2022/08/18 06:40:24;;;;;;;44.17;32.30;;;;;;;17.71;100.00;101212.66;5073189;28;20042;-73
2022/08/18 06:42:50;;;;;;;39.65;30.13;;;;;;;17.72;100.00;101219.81;5073239;28;20111;-73
2022/08/18 06:45:17;;;;;;;40.92;31.15;;;;;;;17.74;100.00;101212.38;5071929;28;20082;-73
2022/08/18 06:47:53;;;;;;;41.03;31.17;;;;;;;17.79;100.00;101218.22;5071982;28;20025;-73
2022/08/18 06:50:35;;;;;;;44.95;31.73;;;;;;;17.82;100.00;101211.63;5073217;28;20087;-73
2022/08/18 06:53:03;;;;;;;43.50;31.25;;;;;;;17.83;100.00;101218.75;5071774;28;20027;-73
2022/08/18 06:55:38;;;;;;;46.75;31.73;;;;;;;17.87;100.00;101222.91;5072268;28;20073;-73
2022/08/18 06:58:21;;;;;;;45.38;29.60;;;;;;;17.89;100.00;101220.03;5071694;28;20025;-73
2022/08/18 07:00:49;;;;;;;38.75;28.55;;;;;;;17.91;100.00;101215.34;5072724;28;20025;-73
2022/08/18 07:03:20;;;;;;;37.60;28.92;;;;;;;17.91;100.00;101218.91;5073107;28;20086;-73
2022/08/18 07:05:57;;;;;;;38.70;29.05;;;;;;;17.96;100.00;101223.88;5073007;28;20035;-73
2022/08/18 07:08:32;;;;;;;38.67;27.70;;;;;;;18.01;100.00;101220.69;5072935;28;20082;-73
2022/08/18 07:11:16;;;;;;;37.75;28.20;;;;;;;18.04;100.00;101225.84;5071554;28;20061;-73
2022/08/18 07:13:44;;;;;;;38.40;28.75;;;;;;;18.03;100.00;101225.00;5071431;28;20042;-73
2022/08/18 07:16:22;;;;;;;40.97;29.50;;;;;;;18.05;100.00;101220.25;5073057;28;20480;-73
2022/08/18 07:18:50;;;;;;;38.65;28.08;;;;;;;18.10;100.00;101223.38;5072679;28;20484;-73
2022/08/18 07:21:28;;;;;;;40.55;29.98;;;;;;;18.13;100.00;101225.78;5072664;28;20472;-73
2022/08/18 07:24:03;;;;;;;39.08;28.00;;;;;;;18.15;100.00;101229.19;5072838;28;20025;-73
2022/08/18 07:26:29;;;;;;;38.80;29.40;;;;;;;18.18;100.00;101225.31;5072453;28;20032;-73
2022/08/18 07:28:55;;;;;;;42.45;28.48;;;;;;;18.25;100.00;101226.41;5072738;28;20226;-73
2022/08/18 07:31:49;;;;;;;39.05;27.83;;;;;;;18.31;100.00;101230.41;5072379;28;20032;-73
2022/08/18 07:34:24;;;;;;;36.90;28.65;;;;;;;18.39;100.00;101230.50;5059273;28;20036;-73
2022/08/18 07:37:01;;;;;;;34.65;25.42;;;;;;;18.49;100.00;101217.66;5072427;28;20036;-73
2022/08/18 07:39:31;;;;;;;38.28;26.45;;;;;;;18.54;100.00;101222.63;5071480;28;20039;-73
2022/08/18 07:42:13;;;;;;;34.72;24.88;;;;;;;18.59;100.00;101227.59;5072473;28;20032;-73
2022/08/18 07:45:01;;;;;;;37.80;26.58;;;;;;;18.64;100.00;101222.56;5072431;28;20065;-73
2022/08/18 07:47:44;;;;;;;34.17;24.13;;;;;;;18.66;100.00;101232.25;5070958;28;20086;-73
2022/08/18 07:50:10;;;;;;;36.05;24.23;;;;;;;18.68;100.00;101232.09;5072568;28;20104;-73
2022/08/18 07:52:41;;;;;;;32.67;22.42;;;;;;;18.68;100.00;101224.81;5072220;28;20095;-73
2022/08/18 07:55:25;;;;;;;35.03;25.63;;;;;;;18.75;100.00;101230.47;5072383;28;20035;-73
2022/08/18 07:58:14;;;;;;;33.05;23.23;;;;;;;18.79;100.00;101236.47;5070777;28;20021;-73
2022/08/18 08:00:44;;;;;;;33.08;23.38;;;;;;;18.79;100.00;101231.03;5072085;28;20028;-73
2022/08/18 08:03:24;;;;;;;36.85;24.90;;;;;;;18.83;100.00;101229.72;5052156;28;20029;-73
2022/08/18 08:06:14;;;;;;;33.50;23.52;;;;;;;18.87;100.00;101228.38;5053582;28;20025;-73
2022/08/18 08:08:51;;;;;;;34.55;25.33;;;;;;;18.96;100.00;101226.59;5056141;28;20025;-74
2022/08/18 08:11:28;;;;;;;34.15;23.85;;;;;;;19.06;100.00;101234.66;5056203;28;20092;-74
2022/08/18 08:14:22;;;;;;;37.25;23.30;;;;;;;19.07;100.00;101229.06;5056273;28;20520;-74
2022/08/18 08:16:52;;;;;;;30.08;21.17;;;;;;;19.05;100.00;101231.09;5054840;28;20043;-74
2022/08/18 08:19:26;;;;;;;33.95;22.63;;;;;;;19.06;100.00;101234.66;5056400;28;20033;-74
2022/08/18 08:22:11;;;;;;;30.35;19.23;;;;;;;19.11;100.00;101230.47;5054722;28;20086;-73
2022/08/18 08:25:02;;;;;;;32.38;19.20;;;;;;;19.14;100.00;101232.84;5056108;28;20051;-73
2022/08/18 08:27:54;;;;;;;33.70;22.50;;;;;;;19.23;100.00;101241.09;5055009;28;20031;-73
2022/08/18 08:30:23;;;;;;;33.50;23.60;;;;;;;19.30;100.00;101240.28;5057721;28;20023;-73
2022/08/18 08:32:56;;;;;;;32.53;23.10;;;;;;;19.34;100.00;101241.69;5074410;28;20044;-73
2022/08/18 08:35:34;;;;;;;29.92;22.17;;;;;;;19.37;100.00;101241.38;5074358;28;20391;-73
2022/08/18 08:38:08;;;;;;;30.08;20.55;;;;;;;19.39;100.00;101243.94;5075643;28;20037;-73
2022/08/18 08:40:51;;;;;;;33.15;21.33;;;;;;;19.43;100.00;101244.44;5074312;28;20070;-73
2022/08/18 08:43:24;;;;;;;29.92;20.95;;;;;;;19.46;100.00;101244.13;5074378;28;20033;-73
2022/08/18 08:46:05;;;;;;;29.42;20.55;;;;;;;19.48;100.00;101247.56;5075412;28;20025;-73
2022/08/18 08:48:35;;;;;;;30.85;21.08;;;;;;;19.53;100.00;101246.06;5075631;28;20046;-73
2022/08/18 08:51:17;;;;;;;30.05;20.40;;;;;;;19.58;100.00;101252.88;5075436;28;20507;-73
2022/08/18 08:53:46;;;;;;;30.10;20.20;;;;;;;19.60;100.00;101251.69;5074318;28;20074;-73
2022/08/18 08:56:15;;;;;;;31.05;19.98;;;;;;;19.66;100.00;101255.66;5074066;28;20425;-73
2022/08/18 08:58:54;;;;;;;28.02;20.40;;;;;;;19.74;100.00;101256.56;5075306;28;20028;-73
2022/08/18 09:01:29;;;;;;;31.45;22.10;;;;;;;19.84;100.00;101248.28;5075051;28;20025;-73
2022/08/18 09:04:16;;;;;;;30.33;20.23;;;;;;;19.89;100.00;101248.63;5074111;28;20488;-73
2022/08/18 09:07:28;;;;;;;32.90;20.13;;;;;;;19.98;100.00;101243.22;5075197;28;20490;-73
2022/08/18 09:10:36;;;;;;;30.50;19.45;;;;;;;20.07;99.36;101244.94;5075018;28;20055;-74
2022/08/18 09:13:07;;;;;;;28.92;17.45;;;;;;;20.19;98.64;101243.66;5075199;28;20431;-74
2022/08/18 09:16:03;;;;;;;25.95;15.93;;;;;;;20.24;95.18;101249.44;5074746;28;20047;-74
2022/08/18 09:18:50;;;;;;;24.80;14.93;;;;;;;20.33;94.68;101261.25;5066305;28;20052;-74
2022/08/18 09:21:25;;;;;;;25.00;15.23;;;;;;;20.42;94.92;101253.91;5074852;28;20029;-74
2022/08/18 09:23:54;;;;;;;23.67;14.68;;;;;;;20.52;95.05;101251.88;5074909;28;20036;-74
2022/08/18 09:26:38;;;;;;;;;;;;;;;20.59;97.32;101252.09;5075115;28;20024;-74
2022/08/18 09:29:16;;;;;;;26.55;15.25;;;;;;;20.64;95.47;101257.03;5074728;28;20281;-74
2022/08/18 09:31:44;;;;;;;29.80;19.38;;;;;;;20.57;92.17;101249.53;5074301;28;20504;-74
2022/08/18 09:34:24;;;;;;;28.40;19.83;;;;;;;20.55;93.17;101245.25;5074698;28;20028;-74
2022/08/18 09:37:10;;;;;;;26.27;16.90;;;;;;;20.52;93.30;101246.44;5074566;28;20384;-74
2022/08/18 09:42:38;;;;;;;28.42;15.10;;;;;;;20.45;91.16;101244.56;5074615;28;20395;-74
2022/08/18 09:45:30;;;;;;;27.23;16.05;;;;;;;20.50;92.65;101250.34;5074373;28;20647;-74
2022/08/18 09:48:10;;;;;;;26.38;18.25;;;;;;;20.50;92.45;101245.75;5066233;28;20044;-74
2022/08/18 09:50:51;;;;;;;26.13;16.10;;;;;;;20.49;89.70;101246.78;5072939;28;20079;-74
2022/08/18 09:53:52;;;;;;;26.70;16.13;;;;;;;20.49;91.84;101237.75;5073142;28;20024;-74
2022/08/18 09:56:49;;;;;;;24.48;15.27;;;;;;;20.46;91.65;101241.66;5072922;28;20028;-74
2022/08/18 09:59:33;;;;;;;24.33;15.55;;;;;;;20.47;91.17;101239.75;5074213;28;20029;-74
2022/08/18 10:02:10;;;;;;;24.25;14.13;;;;;;;20.46;90.39;101247.09;5072695;28;20094;-74
2022/08/18 10:04:50;;;;;;;25.10;16.17;;;;;;;20.47;89.31;101247.94;5074075;28;20103;-74
2022/08/18 10:07:32;;;;;;;22.23;14.25;;;;;;;20.50;90.59;101248.50;5072848;28;20020;-74
2022/08/18 10:10:09;;;;;;;25.02;14.18;;;;;;;20.52;88.94;101249.16;5074230;28;20415;-74
2022/08/18 10:12:56;;;;;;;27.17;15.35;;;;;;;20.58;88.85;101240.28;5072655;28;20021;-74
2022/08/18 10:15:49;;;;;;;25.00;15.15;;;;;;;20.69;89.33;101235.56;5073721;28;20038;-74
2022/08/18 10:18:49;;;;;;;22.92;13.57;;;;;;;20.83;89.00;101236.75;5073992;28;20099;-74
2022/08/18 10:21:19;;;;;;;25.13;13.95;;;;;;;20.88;86.11;101235.22;5068440;28;20381;-74
2022/08/18 10:23:58;;;;;;;24.60;14.45;;;;;;;20.98;89.20;101231.47;5073846;28;20422;-74
2022/08/18 10:26:29;;;;;;;22.08;13.32;;;;;;;21.02;87.87;101230.09;5072357;28;20032;-74
2022/08/18 10:29:06;;;;;;;23.42;12.75;;;;;;;21.04;85.65;101228.03;5073466;28;20021;-74
2022/08/18 10:31:54;;;;;;;21.70;12.35;;;;;;;21.08;87.34;101230.28;5073402;28;20135;-74
2022/08/18 10:34:40;;;;;;;25.25;12.98;;;;;;;21.10;85.95;101214.53;5073409;28;20081;-74
2022/08/18 10:37:44;;;;;;;23.17;13.13;;;;;;;21.13;88.03;101221.56;5073540;28;20031;-74
2022/08/18 10:40:09;;;;;;;24.42;13.00;;;;;;;21.12;85.53;101230.78;5068725;28;20395;-74
2022/08/18 10:42:40;;;;;;;23.42;12.20;;;;;;;21.12;87.34;101226.16;5071974;28;20124;-74
2022/08/18 10:45:19;;;;;;;23.40;11.70;;;;;;;21.14;86.79;101225.97;5071770;28;20028;-74
2022/08/18 10:48:01;;;;;;;19.73;11.07;;;;;;;21.14;85.61;101225.97;5073012;28;20052;-74
2022/08/18 10:50:29;;;;;;;20.30;10.40;;;;;;;21.15;84.40;101224.97;5073276;28;20108;-74
2022/08/18 10:53:13;;;;;;;22.60;10.82;;;;;;;21.14;82.99;101228.72;5071825;28;20024;-74
2022/08/18 10:55:48;;;;;;;23.30;11.75;;;;;;;21.17;82.98;101228.34;5072909;28;20099;-74
2022/08/18 10:58:20;;;;;;;20.38;10.05;;;;;;;21.17;81.68;101227.50;5071677;28;20395;-74
2022/08/18 11:01:25;;;;;;;22.63;11.32;;;;;;;21.21;83.62;101224.25;5072552;28;20028;-74
2022/08/18 11:04:07;;;;;;;22.92;11.57;;;;;;;21.23;82.44;101233.16;5067445;28;20127;-74
2022/08/18 11:06:40;;;;;;;20.50;10.25;;;;;;;21.25;82.11;101235.72;5072968;28;20027;-74
2022/08/18 11:09:07;;;;;;;22.30;11.63;;;;;;;21.24;81.21;101226.63;5072922;28;20025;-74
2022/08/18 11:11:42;;;;;;;22.00;10.35;;;;;;;21.29;82.40;101221.53;5071180;28;20051;-74
2022/08/18 11:14:26;;;;;;;20.25;10.35;;;;;;;21.34;82.43;101215.53;5071463;28;20028;-74
2022/08/18 11:17:11;;;;;;;22.80;10.98;;;;;;;21.43;81.86;101210.88;5052696;28;20024;-74
2022/08/18 11:19:39;;;;;;;19.35;9.82;;;;;;;21.59;81.61;101208.13;5037125;28;20447;-74
2022/08/18 11:22:04;;;;;;;21.08;10.35;;;;;;;21.72;82.37;101209.47;5051193;28;20029;-74
2022/08/18 11:24:34;;;;;;;23.95;12.07;;;;;;;21.72;78.50;101196.63;5052406;28;20433;-74
2022/08/18 11:27:17;;;;;;;21.52;11.35;;;;;;;21.82;82.18;101193.69;5052365;28;20029;-74
2022/08/18 11:29:43;;;;;;;22.08;12.00;;;;;;;21.94;80.70;101197.72;5052189;28;20036;-74
2022/08/18 11:32:31;;;;;;;21.92;11.73;;;;;;;22.03;81.92;101190.31;5069020;28;20040;-74
2022/08/18 11:34:56;;;;;;;20.67;11.13;;;;;;;22.11;81.03;101194.88;5072256;28;20400;-74
2022/08/18 11:37:37;;;;;;;21.07;11.10;;;;;;;22.15;80.53;101188.88;5072258;28;20024;-74
2022/08/18 11:40:06;;;;;;;20.75;10.38;;;;;;;22.21;80.54;101187.28;5071837;28;20361;-74
2022/08/18 11:42:34;;;;;;;23.05;11.00;;;;;;;22.22;74.72;101180.78;5070907;28;20480;-74
2022/08/18 11:45:15;;;;;;;22.35;10.60;;;;;;;22.34;79.19;101182.13;5072062;28;20033;-74